Time;durP1;ratioP1;P1;durP2;ratioP2;P2;SDS_P1;SDS_P2;PMS_P1;PMS_P2;Temp;Humidity;BMP_temperature;BMP_pressure;BME280_temperature;BME280_humidity;BME280_pressure;Samples;Min_cycle;Max_cycle;Signal;HPM_P1;HPM_P2
2023/08/22 00:01:53;;;;;;;11.52;10.43;;;22.50;99.90;;;;;;4940634;29;20042;-66
2023/08/22 00:04:25;;;;;;;13.27;11.97;;;22.40;99.90;;;;;;4944336;29;20113;-66
2023/08/22 00:06:52;;;;;;;13.57;12.15;;;22.40;99.90;;;;;;4940167;28;20632;-65
2023/08/22 00:09:24;;;;;;;13.23;11.82;;;22.40;99.90;;;;;;4936991;29;20039;-65
2023/08/22 00:11:55;;;;;;;16.10;11.63;;;22.40;99.90;;;;;;4943543;29;20166;-66
2023/08/22 00:14:22;;;;;;;15.48;12.65;;;22.30;99.90;;;;;;4937271;28;20042;-65
2023/08/22 00:16:54;;;;;;;13.05;11.30;;;22.30;99.90;;;;;;4954758;28;20508;-66
2023/08/22 00:19:26;;;;;;;13.80;11.85;;;22.30;99.90;;;;;;4944144;29;20047;-66
2023/08/22 00:21:57;;;;;;;13.20;11.77;;;22.20;99.90;;;;;;4945232;28;20111;-65
2023/08/22 00:24:29;;;;;;;13.38;11.98;;;22.20;99.90;;;;;;4940656;28;20133;-65
2023/08/22 00:26:57;;;;;;;18.15;12.43;;;22.20;99.90;;;;;;4945288;28;20496;-65
2023/08/22 00:29:29;;;;;;;14.80;11.80;;;22.10;99.90;;;;;;4944933;28;20039;-66
2023/08/22 00:32:01;;;;;;;13.95;11.52;;;22.10;99.90;;;;;;4951207;28;20044;-65
2023/08/22 00:34:33;;;;;;;15.35;12.23;;;22.00;99.90;;;;;;4934624;28;20047;-65
2023/08/22 00:37:00;;;;;;;14.85;12.77;;;22.00;99.90;;;;;;4932678;29;20501;-66
2023/08/22 00:39:32;;;;;;;13.60;12.23;;;22.00;99.90;;;;;;4931689;29;20051;-65
2023/08/22 00:42:04;;;;;;;14.48;12.57;;;22.00;99.90;;;;;;4939515;29;20239;-65
2023/08/22 00:44:37;;;;;;;;;;;21.90;99.90;;;;;;4945107;28;20079;-66
2023/08/22 00:47:04;;;;;;;14.52;11.65;;;21.80;99.90;;;;;;4948049;29;19962;-66
2023/08/22 00:49:38;;;;;;;15.53;12.43;;;21.80;99.90;;;;;;4941869;29;20047;-65
2023/08/22 00:52:10;;;;;;;;;;;21.80;99.90;;;;;;4947710;28;20040;-65
2023/08/22 00:54:37;;;;;;;13.52;12.13;;;21.80;99.90;;;;;;4955762;28;19922;-68
2023/08/22 00:57:09;;;;;;;15.82;11.65;;;21.70;99.90;;;;;;4933311;29;20529;-65
2023/08/22 00:59:41;;;;;;;13.20;11.80;;;21.70;99.90;;;;;;4933883;29;20044;-65
2023/08/22 01:02:14;;;;;;;14.40;11.77;;;21.70;99.90;;;;;;4936794;29;20078;-65
2023/08/22 01:04:46;;;;;;;13.13;11.80;;;21.70;99.90;;;;;;4938051;28;20292;-65
2023/08/22 01:07:25;;;;;;;12.93;11.57;;;21.70;99.90;;;;;;4941225;29;20050;-65
2023/08/22 01:10:21;;;;;;;14.82;11.75;;;21.70;99.90;;;;;;4939441;29;20054;-65
2023/08/22 01:13:07;;;;;;;14.38;12.98;;;21.80;99.90;;;;;;4955585;28;20050;-68
2023/08/22 01:15:41;;;;;;;14.32;12.77;;;21.80;99.90;;;;;;4933428;28;20047;-68
2023/08/22 01:18:15;;;;;;;13.85;12.45;;;21.70;99.90;;;;;;4936923;29;20043;-68
2023/08/22 01:20:47;;;;;;;13.93;11.80;;;21.70;99.90;;;;;;4948627;29;20048;-68
2023/08/22 01:23:19;;;;;;;13.73;12.52;;;21.60;99.90;;;;;;4937637;28;20056;-68
2023/08/22 01:25:46;;;;;;;14.45;12.77;;;21.70;99.90;;;;;;4939534;29;20042;-68
2023/08/22 01:28:35;;;;;;;16.58;13.50;;;21.60;99.90;;;;;;4941581;29;20043;-68
2023/08/22 01:31:21;;;;;;;14.55;12.13;;;21.50;99.90;;;;;;4943771;29;20043;-68
2023/08/22 01:34:02;;;;;;;14.73;13.32;;;21.40;99.90;;;;;;4955310;28;20050;-68
2023/08/22 01:36:37;;;;;;;15.27;13.70;;;21.30;99.90;;;;;;4938271;28;20074;-67
2023/08/22 01:39:10;;;;;;;15.70;12.85;;;21.20;99.90;;;;;;4943824;29;20061;-68
2023/08/22 01:41:42;;;;;;;14.63;13.32;;;21.20;99.90;;;;;;4943814;28;20047;-68
2023/08/22 01:44:15;;;;;;;14.45;13.15;;;21.20;99.90;;;;;;4933509;29;20044;-68
2023/08/22 01:46:48;;;;;;;18.20;13.93;;;21.20;99.90;;;;;;4937809;29;20053;-68
2023/08/22 01:49:20;;;;;;;17.55;14.38;;;21.20;99.90;;;;;;4941426;29;20043;-68
2023/08/22 01:51:52;;;;;;;15.00;13.60;;;21.20;99.90;;;;;;4942529;29;20035;-68
2023/08/22 01:54:24;;;;;;;15.48;12.70;;;21.20;99.90;;;;;;4942903;29;20043;-67
2023/08/22 01:56:56;;;;;;;15.80;14.03;;;21.30;99.90;;;;;;4958637;28;20044;-68
2023/08/22 01:59:23;;;;;;;15.98;14.25;;;21.30;99.90;;;;;;4940048;29;20296;-68
2023/08/22 02:01:55;;;;;;;16.50;14.73;;;21.40;99.90;;;;;;4942849;28;20051;-68
2023/08/22 02:04:27;;;;;;;17.00;15.15;;;21.40;99.90;;;;;;4931650;29;20044;-68
2023/08/22 02:06:54;;;;;;;16.23;14.52;;;21.40;99.90;;;;;;4935541;29;20479;-68
2023/08/22 02:09:20;;;;;;;15.45;12.82;;;21.50;99.90;;;;;;4956564;23;20044;-64
2023/08/22 02:11:53;;;;;;;14.57;13.27;;;21.50;99.90;;;;;;4974970;28;20034;-64
2023/08/22 02:14:26;;;;;;;15.65;14.05;;;21.40;99.90;;;;;;4973515;28;20047;-64
2023/08/22 02:16:59;;;;;;;17.08;13.93;;;21.40;99.90;;;;;;4975527;28;20066;-64
2023/08/22 02:19:30;;;;;;;14.10;12.40;;;21.40;99.90;;;;;;4984973;28;20195;-64
2023/08/22 02:22:02;;;;;;;16.38;13.38;;;21.30;99.90;;;;;;4968332;28;20054;-64
2023/08/22 02:24:34;;;;;;;14.98;13.40;;;21.20;99.90;;;;;;4961844;28;20477;-64
2023/08/22 02:27:06;;;;;;;16.50;12.77;;;21.20;99.90;;;;;;4955968;28;20048;-64
2023/08/22 02:29:33;;;;;;;14.75;13.25;;;21.10;99.90;;;;;;4961149;28;20134;-64
2023/08/22 02:32:04;;;;;;;13.90;12.02;;;21.10;99.90;;;;;;4962822;28;20538;-64
2023/08/22 02:34:37;;;;;;;16.45;13.23;;;21.10;99.90;;;;;;4961712;28;20047;-64
2023/08/22 02:37:09;;;;;;;13.80;12.38;;;21.10;99.90;;;;;;4961929;28;20051;-64
2023/08/22 02:39:41;;;;;;;13.13;11.82;;;21.10;99.90;;;;;;4963949;28;20063;-64
2023/08/22 02:42:13;;;;;;;13.15;11.77;;;21.10;99.90;;;;;;4944638;28;20050;-64
2023/08/22 02:44:45;;;;;;;15.75;11.80;;;21.10;99.90;;;;;;4991186;28;20059;-64
2023/08/22 02:47:18;;;;;;;14.25;12.73;;;21.10;99.90;;;;;;4964168;28;20053;-64
2023/08/22 02:49:51;;;;;;;17.38;13.10;;;21.10;99.90;;;;;;4927685;28;20040;-64
2023/08/22 02:52:23;;;;;;;14.57;12.05;;;21.10;99.90;;;;;;4971779;28;20047;-64
2023/08/22 02:54:55;;;;;;;14.27;12.98;;;21.00;99.90;;;;;;4959863;28;20039;-64
2023/08/22 02:57:22;;;;;;;14.98;13.45;;;21.00;99.90;;;;;;4968922;28;20039;-64
2023/08/22 02:59:53;;;;;;;14.68;13.07;;;21.00;99.90;;;;;;4964455;28;20059;-64
2023/08/22 03:02:25;;;;;;;14.27;12.70;;;20.90;99.90;;;;;;4968033;28;20157;-63
2023/08/22 03:04:57;;;;;;;21.08;13.40;;;20.90;99.90;;;;;;4960323;28;20047;-64
2023/08/22 03:07:29;;;;;;;15.15;12.32;;;20.80;99.90;;;;;;4943696;28;20117;-63
2023/08/22 03:10:01;;;;;;;15.85;13.80;;;20.90;99.90;;;;;;4955720;28;20074;-65
2023/08/22 03:12:33;;;;;;;13.90;12.50;;;20.90;99.90;;;;;;4967824;28;20074;-65
2023/08/22 03:15:07;;;;;;;13.55;12.25;;;20.90;99.90;;;;;;4971850;28;20035;-64
2023/08/22 03:17:39;;;;;;;13.73;12.38;;;20.90;99.90;;;;;;4964638;28;20043;-62
2023/08/22 03:20:11;;;;;;;13.70;12.38;;;20.90;99.90;;;;;;4961745;28;20476;-64
2023/08/22 03:22:43;;;;;;;17.75;12.93;;;20.90;99.90;;;;;;4992563;28;20043;-63
2023/08/22 03:25:15;;;;;;;13.73;12.40;;;20.90;99.90;;;;;;4970031;28;20050;-63
2023/08/22 03:27:42;;;;;;;13.50;12.20;;;20.90;99.90;;;;;;4950713;28;20043;-63
2023/08/22 03:30:15;;;;;;;13.95;12.55;;;20.90;99.90;;;;;;4964862;28;20050;-63
2023/08/22 03:32:48;;;;;;;15.98;12.98;;;20.90;99.90;;;;;;4950481;28;20508;-63
2023/08/22 03:35:20;;;;;;;15.27;13.57;;;20.90;99.90;;;;;;4957017;28;20097;-63
2023/08/22 03:37:52;;;;;;;17.58;13.57;;;20.90;99.90;;;;;;4959585;28;20065;-63
2023/08/22 03:40:24;;;;;;;15.48;12.20;;;20.90;99.90;;;;;;4970746;28;20093;-63
2023/08/22 03:42:56;;;;;;;14.68;12.93;;;20.80;99.90;;;;;;4967773;28;20121;-63
2023/08/22 03:45:28;;;;;;;13.85;12.45;;;20.80;99.90;;;;;;4964464;28;20051;-63
2023/08/22 03:48:04;;;;;;;13.85;12.40;;;20.80;99.90;;;;;;4962062;28;20066;-64
2023/08/22 03:50:42;;;;;;;14.52;13.10;;;20.80;99.90;;;;;;4958936;28;20062;-65
2023/08/22 03:53:10;;;;;;;15.35;13.85;;;20.80;99.90;;;;;;4954883;28;20043;-65
2023/08/22 03:55:43;;;;;;;17.63;13.63;;;20.80;99.90;;;;;;4954197;28;20139;-67
2023/08/22 03:58:15;;;;;;;13.75;12.30;;;20.70;99.90;;;;;;4952530;28;20053;-66
2023/08/22 04:00:47;;;;;;;15.38;11.95;;;20.80;99.90;;;;;;4956793;28;20535;-66
2023/08/22 04:03:19;;;;;;;13.95;12.55;;;21.10;99.90;;;;;;4956453;28;20081;-66
2023/08/22 04:05:51;;;;;;;15.82;12.20;;;21.30;99.90;;;;;;4973484;28;20053;-66
2023/08/22 04:08:23;;;;;;;13.60;12.20;;;21.50;99.90;;;;;;4959581;28;20043;-66
2023/08/22 04:10:52;;;;;;;13.90;12.50;;;21.50;99.90;;;;;;4961818;28;20039;-66
2023/08/22 04:13:20;;;;;;;13.93;12.45;;;21.40;99.90;;;;;;4966832;28;20046;-66
2023/08/22 04:15:52;;;;;;;15.02;13.52;;;21.30;99.90;;;;;;4957951;28;20407;-66
2023/08/22 04:18:19;;;;;;;14.70;12.95;;;21.20;99.90;;;;;;4954414;28;20036;-66
2023/08/22 04:20:46;;;;;;;13.13;11.82;;;21.00;99.90;;;;;;4965035;28;20035;-66
2023/08/22 04:23:18;;;;;;;14.50;12.15;;;20.90;99.90;;;;;;4955826;28;20058;-66
2023/08/22 04:25:45;;;;;;;18.08;13.43;;;20.80;99.90;;;;;;4964061;28;20067;-66
2023/08/22 04:28:17;;;;;;;15.52;12.45;;;20.70;99.90;;;;;;4964024;28;20043;-66
2023/08/22 04:30:49;;;;;;;15.52;11.90;;;20.50;99.90;;;;;;4944870;28;20047;-66
2023/08/22 04:33:20;;;;;;;15.25;12.80;;;20.40;99.90;;;;;;4962915;28;20051;-66
2023/08/22 04:35:52;;;;;;;12.98;11.68;;;20.30;99.90;;;;;;4962151;28;20039;-66
2023/08/22 04:38:24;;;;;;;16.60;13.03;;;20.20;99.90;;;;;;4970845;28;20147;-66
2023/08/22 04:40:53;;;;;;;13.85;12.63;;;20.20;99.90;;;;;;4952976;28;20816;-66
2023/08/22 04:44:00;;;;;;;15.68;12.85;;;20.20;99.90;;;;;;4939881;28;20059;-66
2023/08/22 04:46:27;;;;;;;15.50;12.32;;;20.30;99.90;;;;;;4966925;28;20050;-66
2023/08/22 04:48:59;;;;;;;16.23;12.15;;;20.30;99.90;;;;;;4961548;28;20102;-66
2023/08/22 04:51:26;;;;;;;15.85;12.77;;;20.30;99.90;;;;;;4965809;28;20036;-66
2023/08/22 04:53:58;;;;;;;13.75;12.38;;;20.30;99.90;;;;;;4964889;28;20059;-66
2023/08/22 04:56:30;;;;;;;16.02;12.60;;;20.30;99.90;;;;;;4965216;28;20131;-66
2023/08/22 04:59:02;;;;;;;19.50;13.43;;;20.20;99.90;;;;;;4969476;28;20039;-66
2023/08/22 05:01:34;;;;;;;18.60;12.85;;;20.10;99.90;;;;;;4957251;28;20147;-66
2023/08/22 05:04:07;;;;;;;18.95;14.27;;;20.10;99.90;;;;;;4946042;28;20047;-66
2023/08/22 05:06:39;;;;;;;19.30;13.65;;;20.10;99.90;;;;;;4956117;28;20610;-66
2023/08/22 05:09:15;;;;;;;14.13;12.77;;;20.10;99.90;;;;;;4961087;28;20070;-66
2023/08/22 05:11:48;;;;;;;16.70;14.13;;;20.10;99.90;;;;;;4961422;28;20085;-66
2023/08/22 05:14:21;;;;;;;18.33;13.63;;;20.20;99.90;;;;;;4967743;28;20480;-66
2023/08/22 05:16:48;;;;;;;14.02;12.55;;;20.30;99.90;;;;;;4962507;28;20032;-66
2023/08/22 05:19:20;;;;;;;20.67;13.85;;;20.30;99.90;;;;;;4944804;28;20035;-66
2023/08/22 05:21:52;;;;;;;14.93;13.32;;;20.40;99.90;;;;;;4969724;28;20047;-66
2023/08/22 05:24:24;;;;;;;19.58;13.57;;;20.40;99.90;;;;;;4960037;28;20054;-66
2023/08/22 05:26:56;;;;;;;17.35;12.77;;;20.40;99.90;;;;;;4954712;28;20054;-66
2023/08/22 05:29:28;;;;;;;15.85;13.05;;;20.40;99.90;;;;;;4956406;28;20047;-66
2023/08/22 05:32:00;;;;;;;17.85;14.13;;;20.50;99.90;;;;;;4958448;28;20476;-66
2023/08/22 05:34:27;;;;;;;19.17;13.30;;;20.50;99.90;;;;;;4976658;28;20094;-66
2023/08/22 05:36:59;;;;;;;15.75;12.55;;;20.50;99.90;;;;;;4955070;28;20122;-66
2023/08/22 05:39:31;;;;;;;16.55;13.57;;;20.60;99.90;;;;;;4963718;28;20476;-66
2023/08/22 05:42:04;;;;;;;23.60;13.90;;;20.60;99.90;;;;;;4961675;28;20061;-66
2023/08/22 05:44:32;;;;;;;20.77;12.80;;;20.60;99.90;;;;;;4968543;28;20534;-66
2023/08/22 05:47:02;;;;;;;17.50;13.82;;;20.60;99.90;;;;;;4961435;28;20035;-66
2023/08/22 05:49:29;;;;;;;26.60;14.50;;;20.70;99.90;;;;;;4955767;28;20035;-66
2023/08/22 05:52:05;;;;;;;19.92;13.90;;;20.70;99.90;;;;;;4945208;28;20038;-66
2023/08/22 05:54:33;;;;;;;16.38;13.43;;;20.80;99.90;;;;;;4959546;28;20539;-66
2023/08/22 05:57:02;;;;;;;30.83;16.05;;;20.90;99.90;;;;;;4970292;28;20039;-66
2023/08/22 05:59:34;;;;;;;27.35;16.98;;;21.00;99.90;;;;;;4966473;28;20428;-66
2023/08/22 06:02:07;;;;;;;21.40;16.48;;;21.10;99.90;;;;;;4962617;28;20065;-66
2023/08/22 06:04:39;;;;;;;25.10;15.80;;;21.10;99.90;;;;;;4962864;28;20035;-66
2023/08/22 06:07:11;;;;;;;24.67;17.00;;;21.20;99.90;;;;;;4964046;28;20512;-66
2023/08/22 06:09:43;;;;;;;21.85;15.75;;;21.30;99.90;;;;;;4967504;28;20038;-66
2023/08/22 06:12:17;;;;;;;;;;;21.30;99.90;;;;;;4955066;28;20043;-66
2023/08/22 06:14:49;;;;;;;25.02;17.77;;;21.40;99.90;;;;;;4964701;28;20460;-66
2023/08/22 06:17:21;;;;;;;22.67;18.85;;;21.40;99.90;;;;;;4946353;28;20043;-66
2023/08/22 06:19:54;;;;;;;23.08;20.40;;;21.50;99.90;;;;;;4956638;28;20043;-66
2023/08/22 06:22:26;;;;;;;24.90;22.35;;;21.50;99.90;;;;;;4949296;28;20048;-66
2023/08/22 06:24:58;;;;;;;29.50;20.90;;;21.60;99.90;;;;;;4962435;28;20051;-66
2023/08/22 06:27:31;;;;;;;21.23;19.05;;;21.60;99.90;;;;;;4957133;28;20103;-66
2023/08/22 06:30:00;;;;;;;21.65;18.15;;;21.70;99.90;;;;;;4969346;28;20094;-66
2023/08/22 06:32:34;;;;;;;18.52;16.75;;;21.70;99.90;;;;;;4969658;28;20039;-66
2023/08/22 06:35:01;;;;;;;18.08;16.35;;;21.80;99.90;;;;;;4955109;28;20515;-66
2023/08/22 06:37:34;;;;;;;19.27;16.08;;;21.90;99.90;;;;;;4966577;28;20063;-66
2023/08/22 06:40:00;;;;;;;19.40;16.45;;;22.00;99.90;;;;;;4960737;28;20050;-66
2023/08/22 06:42:32;;;;;;;23.27;16.63;;;22.10;99.90;;;;;;4960613;28;20504;-66
2023/08/22 06:45:08;;;;;;;18.85;17.00;;;22.10;99.90;;;;;;4961994;28;20396;-66
2023/08/22 06:47:39;;;;;;;20.33;18.23;;;22.20;99.90;;;;;;4961603;28;20105;-66
2023/08/22 06:50:07;;;;;;;20.70;17.23;;;22.30;99.90;;;;;;4960592;28;20398;-66
2023/08/22 06:52:39;;;;;;;19.83;17.73;;;22.40;99.90;;;;;;4958667;28;20410;-66
2023/08/22 06:55:11;;;;;;;25.55;17.75;;;22.50;99.90;;;;;;4952027;28;20468;-66
2023/08/22 06:57:43;;;;;;;17.70;15.90;;;22.60;99.90;;;;;;4955638;28;20466;-66
2023/08/22 07:00:16;;;;;;;20.05;16.17;;;22.70;99.90;;;;;;4956899;28;20051;-66
2023/08/22 07:02:48;;;;;;;;;;;22.80;99.90;;;;;;4959444;28;20043;-66
2023/08/22 07:05:21;;;;;;;16.77;14.98;;;22.90;99.90;;;;;;4959641;28;20259;-66
2023/08/22 07:07:53;;;;;;;17.08;14.57;;;23.00;99.90;;;;;;4960640;28;20047;-66
2023/08/22 07:10:25;;;;;;;20.02;15.20;;;23.20;99.90;;;;;;4960968;28;20047;-66
2023/08/22 07:12:56;;;;;;;16.80;14.55;;;23.20;99.90;;;;;;4960409;28;20055;-66
2023/08/22 07:15:29;;;;;;;16.33;13.40;;;23.40;99.90;;;;;;4938732;28;20036;-66
2023/08/22 07:18:01;;;;;;;16.88;14.93;;;23.50;99.90;;;;;;4955727;28;20439;-66
2023/08/22 07:20:32;;;;;;;16.38;14.75;;;23.60;99.90;;;;;;4950328;28;20061;-66
2023/08/22 07:23:04;;;;;;;19.27;14.75;;;23.70;99.90;;;;;;4956430;28;20046;-66
2023/08/22 07:25:36;;;;;;;16.38;14.40;;;23.80;99.90;;;;;;4960129;28;20040;-66
2023/08/22 07:28:08;;;;;;;15.35;13.85;;;23.90;99.90;;;;;;4960634;28;20051;-66
2023/08/22 07:30:40;;;;;;;16.67;14.00;;;24.00;99.90;;;;;;4962908;28;20046;-66
2023/08/22 07:33:13;;;;;;;14.80;13.23;;;24.10;99.90;;;;;;4958536;28;20049;-66
2023/08/22 07:35:46;;;;;;;18.40;13.50;;;24.20;99.90;;;;;;4959652;28;20050;-66
2023/08/22 07:38:18;;;;;;;19.23;13.68;;;24.30;99.90;;;;;;4960708;28;20125;-66
2023/08/22 07:40:50;;;;;;;17.13;13.80;;;24.40;99.90;;;;;;4959677;28;20604;-66
2023/08/22 07:43:17;;;;;;;15.02;12.75;;;24.50;99.90;;;;;;4953664;28;20603;-66
2023/08/22 07:45:49;;;;;;;19.35;12.82;;;24.60;99.90;;;;;;4953671;28;20035;-66
2023/08/22 07:48:16;;;;;;;15.38;13.50;;;24.70;99.90;;;;;;4958759;28;20468;-66
2023/08/22 07:50:48;;;;;;;14.80;13.30;;;24.70;99.90;;;;;;4965790;28;20407;-66
2023/08/22 07:53:20;;;;;;;17.17;12.93;;;24.80;99.90;;;;;;4961397;28;20422;-66
2023/08/22 07:55:52;;;;;;;14.63;13.07;;;24.90;99.90;;;;;;4959634;28;20570;-66
2023/08/22 07:58:24;;;;;;;16.55;13.48;;;25.00;99.90;;;;;;4958941;28;20089;-66
2023/08/22 08:00:56;;;;;;;18.17;14.30;;;25.00;99.90;;;;;;4956576;28;20534;-66
2023/08/22 08:03:28;;;;;;;15.38;13.80;;;25.10;99.90;;;;;;4954149;28;20051;-66
2023/08/22 08:06:04;;;;;;;15.82;14.20;;;25.20;99.90;;;;;;4951163;28;20420;-66
2023/08/22 08:08:36;;;;;;;17.40;13.80;;;25.20;99.90;;;;;;4965413;28;20043;-66
2023/08/22 08:11:08;;;;;;;15.93;13.85;;;25.30;99.90;;;;;;4989958;23;20077;-67
2023/08/22 08:13:40;;;;;;;16.52;12.20;;;25.40;99.90;;;;;;4991639;28;20708;-66
2023/08/22 08:16:07;;;;;;;16.88;13.90;;;25.50;99.90;;;;;;4991296;28;20038;-67
2023/08/22 08:18:38;;;;;;;13.80;12.32;;;25.60;99.90;;;;;;4990375;28;20049;-67
2023/08/22 08:21:10;;;;;;;15.55;14.00;;;25.60;99.90;;;;;;4986983;28;20514;-67
2023/08/22 08:23:37;;;;;;;16.67;13.75;;;25.70;99.90;;;;;;4972353;28;20035;-67
2023/08/22 08:26:06;;;;;;;21.35;15.38;;;25.80;99.90;;;;;;4983461;28;20117;-68
2023/08/22 08:28:38;;;;;;;19.80;13.32;;;25.90;99.90;;;;;;4973244;28;20046;-67
2023/08/22 08:31:10;;;;;;;17.05;13.88;;;26.00;99.90;;;;;;4988235;28;20516;-67
2023/08/22 08:33:42;;;;;;;18.17;13.27;;;26.10;99.90;;;;;;4969647;28;20042;-67
2023/08/22 08:36:09;;;;;;;14.80;13.27;;;26.20;99.90;;;;;;4983199;28;20056;-67
2023/08/22 08:38:41;;;;;;;15.23;13.15;;;26.30;99.90;;;;;;4980442;28;20043;-67
2023/08/22 08:41:13;;;;;;;16.65;12.73;;;26.40;99.90;;;;;;4983246;28;20042;-67
2023/08/22 08:43:46;;;;;;;15.77;12.90;;;26.50;99.90;;;;;;4978689;28;20122;-67
2023/08/22 08:46:18;;;;;;;17.92;14.50;;;26.60;99.90;;;;;;4961805;28;20042;-67
2023/08/22 08:48:50;;;;;;;15.60;13.15;;;26.70;99.90;;;;;;4972666;28;20043;-67
2023/08/22 08:51:23;;;;;;;16.13;12.70;;;26.80;99.90;;;;;;4984866;28;20035;-67
2023/08/22 08:53:56;;;;;;;;;;;26.90;99.90;;;;;;4979709;28;20430;-67
2023/08/22 08:56:22;;;;;;;14.32;12.70;;;27.00;99.90;;;;;;4978719;28;19944;-67
2023/08/22 08:58:49;;;;;;;13.82;12.43;;;27.10;99.90;;;;;;4981920;28;20063;-68
2023/08/22 09:01:24;;;;;;;14.77;11.98;;;27.20;99.90;;;;;;4980359;28;20045;-67
2023/08/22 09:03:56;;;;;;;18.00;12.13;;;27.30;99.90;;;;;;4980396;28;20046;-67
2023/08/22 09:06:25;;;;;;;13.95;12.07;;;27.30;99.90;;;;;;4979427;28;20507;-67
2023/08/22 09:09:08;;;;;;;12.82;11.63;;;27.40;99.90;;;;;;4981993;28;20042;-67
2023/08/22 09:11:39;;;;;;;14.50;12.57;;;27.40;99.90;;;;;;4977002;28;20538;-67
2023/08/22 09:14:11;;;;;;;15.38;12.63;;;27.40;99.90;;;;;;4954039;28;20439;-67
2023/08/22 09:16:43;;;;;;;13.93;12.43;;;27.40;99.90;;;;;;4975342;28;20050;-66
2023/08/22 09:19:16;;;;;;;14.70;11.45;;;27.50;99.90;;;;;;4983966;28;20531;-67
2023/08/22 09:21:57;;;;;;;12.73;11.43;;;27.60;99.90;;;;;;4981468;28;20074;-68
2023/08/22 09:24:30;;;;;;;17.10;12.23;;;27.70;99.90;;;;;;4980979;28;20082;-68
2023/08/22 09:27:03;;;;;;;;;;;27.80;99.90;;;;;;4981384;28;20038;-67
2023/08/22 09:29:35;;;;;;;13.80;11.90;;;28.00;99.90;;;;;;4976664;28;19922;-68
2023/08/22 09:32:07;;;;;;;12.77;11.43;;;28.10;99.90;;;;;;4973948;28;20094;-67
2023/08/22 09:34:35;;;;;;;12.63;11.43;;;28.20;99.90;;;;;;4972081;28;20149;-67
2023/08/22 09:37:07;;;;;;;13.65;12.25;;;28.30;99.90;;;;;;4974485;28;20039;-67
2023/08/22 09:39:54;;;;;;;13.15;11.68;;;28.40;99.90;;;;;;5010694;28;20039;-66
2023/08/22 09:42:32;;;;;;;18.40;11.52;;;28.40;99.90;;;;;;4987562;28;20042;-67
2023/08/22 09:44:59;;;;;;;14.50;10.88;;;28.50;99.90;;;;;;4982638;28;20046;-67
2023/08/22 09:47:31;;;;;;;12.98;11.50;;;28.50;99.90;;;;;;4983531;28;20407;-67
2023/08/22 09:50:07;;;;;;;17.17;11.15;;;28.60;99.90;;;;;;4984080;28;20049;-67
2023/08/22 09:52:37;;;;;;;15.45;11.55;;;28.70;99.90;;;;;;4986461;28;20063;-67
2023/08/22 09:55:06;;;;;;;16.27;12.18;;;28.70;99.90;;;;;;4976635;28;20494;-67
2023/08/22 09:57:35;;;;;;;12.75;11.45;;;28.90;99.90;;;;;;4976469;28;20072;-67
2023/08/22 10:00:10;;;;;;;14.63;12.30;;;28.90;99.90;;;;;;4979551;28;20045;-67
2023/08/22 10:02:43;;;;;;;13.48;10.55;;;29.00;99.90;;;;;;4978030;28;20041;-67
2023/08/22 10:05:15;;;;;;;13.43;12.13;;;29.10;99.90;;;;;;4984448;28;20043;-67
2023/08/22 10:07:47;;;;;;;11.90;10.70;;;29.20;99.90;;;;;;4983522;28;20051;-67
2023/08/22 10:10:19;;;;;;;13.27;11.20;;;29.20;99.90;;;;;;4981304;28;20498;-67
2023/08/22 10:12:52;;;;;;;14.43;11.80;;;29.30;99.90;;;;;;4987094;28;20613;-67
2023/08/22 10:15:24;;;;;;;16.25;11.43;;;29.40;99.90;;;;;;4982733;28;20038;-68
2023/08/22 10:17:56;;;;;;;15.15;10.85;;;29.50;99.90;;;;;;4973324;28;20039;-66
2023/08/22 10:20:28;;;;;;;13.32;11.25;;;29.50;99.90;;;;;;4976579;28;20491;-68
2023/08/22 10:23:00;;;;;;;12.03;10.90;;;29.70;99.90;;;;;;4986195;28;20045;-68
2023/08/22 10:25:50;;;;;;;12.20;10.27;;;29.80;99.90;;;;;;4979074;28;20293;-67
2023/08/22 10:28:18;;;;;;;14.18;11.20;;;29.80;99.90;;;;;;4982518;28;20042;-67
2023/08/22 10:31:03;;;;;;;14.38;10.57;;;29.80;99.90;;;;;;4979643;28;20047;-67
2023/08/22 10:33:35;;;;;;;13.20;9.68;;;29.90;99.90;;;;;;4983482;28;20411;-67
2023/08/22 10:36:17;;;;;;;11.37;10.20;;;29.90;99.90;;;;;;4983295;28;20046;-67
2023/08/22 10:38:54;;;;;;;11.00;9.90;;;30.10;99.90;;;;;;4984139;28;20285;-67
2023/08/22 10:41:53;;;;;;;16.73;11.30;;;30.10;99.90;;;;;;4973284;28;20043;-67
2023/08/22 10:44:30;;;;;;;11.48;9.57;;;30.10;99.90;;;;;;4984779;28;20062;-67
2023/08/22 10:47:07;;;;;;;10.82;9.93;;;30.20;99.90;;;;;;4979846;28;20042;-67
2023/08/22 10:49:39;;;;;;;11.05;9.95;;;30.20;99.90;;;;;;4979225;28;20051;-68
2023/08/22 10:52:12;;;;;;;12.57;9.20;;;30.20;99.90;;;;;;4983903;28;20511;-67
2023/08/22 10:55:05;;;;;;;10.07;9.07;;;30.10;99.90;;;;;;4981299;28;20045;-68
2023/08/22 10:57:44;;;;;;;10.57;8.60;;;30.10;99.90;;;;;;4949980;28;20498;-68
2023/08/22 11:00:19;;;;;;;10.05;9.05;;;30.20;99.90;;;;;;4976618;28;20051;-67
2023/08/22 11:02:56;;;;;;;13.20;8.52;;;30.30;99.90;;;;;;4984982;28;20039;-67
2023/08/22 11:05:29;;;;;;;12.63;9.90;;;30.40;99.90;;;;;;4971175;28;20041;-67
2023/08/22 11:08:05;;;;;;;10.23;9.20;;;30.40;99.90;;;;;;4976222;28;20038;-67
2023/08/22 11:10:38;;;;;;;12.50;8.10;;;30.60;99.90;;;;;;4977380;28;20510;-67
2023/08/22 11:13:10;;;;;;;9.30;8.00;;;30.60;99.90;;;;;;4980900;28;20077;-67
2023/08/22 11:15:42;;;;;;;9.63;8.07;;;30.60;99.90;;;;;;4979343;28;20034;-67
2023/08/22 11:18:14;;;;;;;11.48;9.32;;;30.70;99.90;;;;;;4980275;28;20053;-67
2023/08/22 11:20:54;;;;;;;8.95;8.02;;;30.90;99.90;;;;;;4975925;28;20511;-67
2023/08/22 11:23:26;;;;;;;9.60;8.23;;;30.90;99.90;;;;;;4988357;28;20101;-67
2023/08/22 11:25:53;;;;;;;10.75;8.95;;;30.90;99.90;;;;;;4977824;28;20419;-67
2023/08/22 11:28:33;;;;;;;9.10;8.18;;;30.80;99.90;;;;;;4973985;28;20047;-68
2023/08/22 11:31:01;;;;;;;9.40;8.60;;;30.90;99.90;;;;;;4977063;28;20135;-67
2023/08/22 11:33:52;;;;;;;10.50;8.57;;;31.00;99.90;;;;;;4986737;28;20042;-68
2023/08/22 11:36:25;;;;;;;9.02;8.05;;;31.10;99.90;;;;;;4978707;28;20038;-67
2023/08/22 11:38:57;;;;;;;9.35;7.50;;;31.10;99.90;;;;;;4982021;28;20058;-67
2023/08/22 11:41:29;;;;;;;;;;;31.20;99.90;;;;;;4979735;28;20039;-68
2023/08/22 11:44:01;;;;;;;8.23;7.32;;;31.20;99.90;;;;;;4977759;28;19933;-67
2023/08/22 11:46:37;;;;;;;8.63;7.80;;;31.30;99.90;;;;;;4977992;28;20038;-70
2023/08/22 11:49:28;;;;;;;10.88;8.05;;;31.20;99.90;;;;;;4964209;28;20886;-67
2023/08/22 11:52:00;;;;;;;9.70;7.63;;;31.20;99.90;;;;;;5002761;28;20043;-67
2023/08/22 11:54:32;;;;;;;11.68;7.72;;;31.20;99.90;;;;;;4976729;28;20038;-67
2023/08/22 11:57:04;;;;;;;11.67;8.80;;;31.30;99.90;;;;;;4978910;28;20054;-66
2023/08/22 11:59:36;;;;;;;8.93;7.93;;;31.40;99.90;;;;;;4981084;28;20054;-68
2023/08/22 12:02:11;;;;;;;10.80;8.00;;;31.60;99.90;;;;;;5009115;28;20046;-67
2023/08/22 12:04:43;;;;;;;11.25;9.88;;;31.70;99.90;;;;;;4979746;28;20049;-70
2023/08/22 12:07:15;;;;;;;13.88;8.40;;;31.60;99.90;;;;;;4987050;28;20125;-66
2023/08/22 12:09:57;;;;;;;9.18;7.90;;;31.70;99.90;;;;;;4973958;28;20046;-67
2023/08/22 12:12:23;;;;;;;9.00;7.53;;;31.60;99.90;;;;;;4966008;28;20503;-67
2023/08/22 12:14:56;;;;;;;8.67;7.17;;;31.80;99.90;;;;;;4974473;28;20130;-68
2023/08/22 12:17:28;;;;;;;;;;;32.00;99.90;;;;;;4975616;28;20424;-67
2023/08/22 12:20:00;;;;;;;10.00;7.40;;;32.00;99.90;;;;;;4973561;28;19922;-67
2023/08/22 12:22:32;;;;;;;8.75;7.40;;;32.10;99.90;;;;;;5013488;28;20406;-67
2023/08/22 12:25:04;;;;;;;9.17;8.20;;;32.00;99.90;;;;;;4980693;28;20590;-67
2023/08/22 12:27:36;;;;;;;8.57;7.78;;;32.00;99.90;;;;;;4978059;28;20097;-67
2023/08/22 12:30:08;;;;;;;9.90;8.63;;;32.00;99.90;;;;;;4974841;28;20046;-68
2023/08/22 12:32:46;;;;;;;8.65;7.72;;;32.00;99.90;;;;;;4973874;28;20041;-67
2023/08/22 12:35:18;;;;;;;10.88;8.27;;;32.00;99.90;;;;;;4979420;28;20053;-67
2023/08/22 12:37:50;;;;;;;9.53;7.93;;;31.90;99.90;;;;;;4973675;28;20061;-67
2023/08/22 12:40:22;;;;;;;10.88;7.50;;;32.10;99.90;;;;;;4967382;28;20136;-67
2023/08/22 12:42:54;;;;;;;9.80;8.43;;;32.20;99.90;;;;;;4979924;28;20106;-68
2023/08/22 12:45:26;;;;;;;10.20;8.10;;;32.20;99.90;;;;;;4979622;28;20046;-67
2023/08/22 12:47:53;;;;;;;9.63;8.13;;;32.30;99.90;;;;;;4978876;28;20042;-67
2023/08/22 12:50:25;;;;;;;8.10;7.30;;;32.30;99.90;;;;;;4976489;28;20043;-67
2023/08/22 12:52:57;;;;;;;8.63;7.82;;;32.50;99.90;;;;;;4972494;28;20146;-67
2023/08/22 12:55:29;;;;;;;10.00;7.68;;;32.40;99.90;;;;;;4972892;28;20074;-67
2023/08/22 12:58:01;;;;;;;13.03;8.17;;;32.30;99.90;;;;;;4972649;28;20116;-67
2023/08/22 13:00:33;;;;;;;8.32;7.53;;;32.40;99.90;;;;;;4980137;28;20051;-67